createdAt,value
2019-03-28T00:00:44.904Z,102698.91
2019-03-28T00:03:13.332Z,102692.30
2019-03-28T00:05:41.730Z,102689.34
2019-03-28T00:08:12.533Z,102689.98
2019-03-28T00:10:40.394Z,102685.52
2019-03-28T00:13:08.793Z,102683.61
2019-03-28T00:15:37.226Z,102680.97
2019-03-28T00:18:05.881Z,102677.22
2019-03-28T00:20:35.330Z,102680.52
2019-03-28T00:23:08.169Z,102681.39
2019-03-28T00:25:36.596Z,102680.33
2019-03-28T00:28:04.999Z,102685.68
2019-03-28T00:30:33.423Z,102680.87
2019-03-28T00:33:01.829Z,102681.19
2019-03-28T00:35:30.310Z,102675.45
2019-03-28T00:37:58.712Z,102678.83
2019-03-28T00:40:27.131Z,102682.58
2019-03-28T00:42:55.624Z,102690.78
2019-03-28T00:45:24.008Z,102692.83
2019-03-28T00:47:52.437Z,102697.92
2019-03-28T00:50:20.881Z,102696.41
2019-03-28T00:52:49.297Z,102693.63
2019-03-28T00:55:17.688Z,102696.33
2019-03-28T00:57:46.108Z,102700.63
2019-03-28T01:00:15.576Z,102695.45
2019-03-28T01:02:43.980Z,102694.02
2019-03-28T01:05:12.925Z,102691.79
2019-03-28T01:07:41.377Z,102696.66
2019-03-28T01:10:10.160Z,102690.20
2019-03-28T01:12:38.680Z,102688.36
2019-03-28T01:15:07.984Z,102686.53
2019-03-28T01:17:36.407Z,102684.06
2019-03-28T01:20:06.528Z,102680.59
2019-03-28T01:22:34.960Z,102679.41
2019-03-28T01:25:03.378Z,102676.85
2019-03-28T01:27:31.809Z,102671.95
2019-03-28T01:30:00.332Z,102671.47
2019-03-28T01:32:28.722Z,102666.52
2019-03-28T01:34:57.144Z,102663.25
2019-03-28T01:37:25.540Z,102666.52
2019-03-28T01:39:53.971Z,102666.84
2019-03-28T01:42:22.369Z,102665.25
2019-03-28T01:44:50.820Z,102667.53
2019-03-28T01:47:19.234Z,102660.47
2019-03-28T01:49:47.667Z,102658.56
2019-03-28T01:52:16.082Z,102658.88
2019-03-28T01:54:44.569Z,102659.41
2019-03-28T01:57:13.127Z,102658.69
2019-03-28T01:59:41.483Z,102656.53
2019-03-28T02:02:09.891Z,102659.80
2019-03-28T02:04:38.295Z,102663.23
2019-03-28T02:07:06.760Z,102662.03
2019-03-28T02:09:35.157Z,102656.53
2019-03-28T02:12:03.603Z,102660.92
2019-03-28T02:14:32.009Z,102661.88
2019-03-28T02:17:00.414Z,102656.57
2019-03-28T02:19:28.845Z,102658.24
2019-03-28T02:21:57.235Z,102662.52
2019-03-28T02:24:26.243Z,102655.42
2019-03-28T02:26:54.853Z,102659.56
2019-03-28T02:29:23.279Z,102661.80
2019-03-28T02:31:51.681Z,102661.88
2019-03-28T02:34:20.112Z,102664.02
2019-03-28T02:36:48.581Z,102657.57
2019-03-28T02:39:16.992Z,102663.47
2019-03-28T02:41:45.411Z,102661.88
2019-03-28T02:44:13.807Z,102660.36
2019-03-28T02:46:42.234Z,102662.52
2019-03-28T02:49:10.651Z,102664.74
2019-03-28T02:51:39.056Z,102664.11
2019-03-28T02:54:07.487Z,102664.11
2019-03-28T02:56:35.907Z,102666.02
2019-03-28T02:59:04.374Z,102669.44
2019-03-28T03:01:32.792Z,102669.16
2019-03-28T03:04:01.198Z,102669.28
2019-03-28T03:06:29.681Z,102667.37
2019-03-28T03:08:58.070Z,102674.30
2019-03-28T03:11:26.489Z,102671.59
2019-03-28T03:13:54.886Z,102670.00
2019-03-28T03:16:23.287Z,102672.07
2019-03-28T03:18:51.702Z,102673.03
2019-03-28T03:21:20.126Z,102672.07
2019-03-28T03:23:48.541Z,102686.66
2019-03-28T03:26:16.961Z,102680.28
2019-03-28T03:28:45.381Z,102689.36
2019-03-28T03:31:20.279Z,102687.69
2019-03-28T03:33:43.967Z,102696.13
2019-03-28T03:36:12.401Z,102694.81
2019-03-28T03:38:40.803Z,102697.05
2019-03-28T03:41:09.292Z,102696.33
2019-03-28T03:43:37.747Z,102695.22
2019-03-28T03:46:06.223Z,102694.42
2019-03-28T03:48:34.719Z,102690.27
2019-03-28T03:51:03.110Z,102698.48
2019-03-28T03:53:31.537Z,102700.44
2019-03-28T03:55:59.944Z,102699.34
2019-03-28T03:58:28.367Z,102699.20
2019-03-28T04:00:56.771Z,102706.92
2019-03-28T04:03:25.264Z,102700.75
2019-03-28T04:05:53.676Z,102704.18
2019-03-28T04:08:22.092Z,102707.05
2019-03-28T04:10:50.488Z,102702.55
2019-03-28T04:13:18.887Z,102713.22
2019-03-28T04:15:47.472Z,102713.83
2019-03-28T04:18:15.881Z,102707.38
2019-03-28T04:20:44.302Z,102711.11
2019-03-28T04:23:12.723Z,102708.48
2019-03-28T04:25:41.111Z,102713.19
2019-03-28T04:28:09.528Z,102714.14
2019-03-28T04:30:37.925Z,102721.48
2019-03-28T04:33:06.333Z,102714.34
2019-03-28T04:35:34.807Z,102717.37
2019-03-28T04:38:03.227Z,102714.98
2019-03-28T04:40:31.622Z,102713.86
2019-03-28T04:43:00.068Z,102718.17
2019-03-28T04:45:28.429Z,102720.72
2019-03-28T04:47:56.837Z,102723.43
2019-03-28T04:50:25.261Z,102726.86
2019-03-28T04:52:54.138Z,102728.21
2019-03-28T04:55:22.535Z,102732.91
2019-03-28T04:57:50.966Z,102730.36
2019-03-28T05:00:19.700Z,102729.97
2019-03-28T05:02:48.129Z,102733.94
2019-03-28T05:05:16.572Z,102735.34
2019-03-28T05:07:44.986Z,102742.18
2019-03-28T05:10:13.524Z,102737.00
2019-03-28T05:12:42.064Z,102737.56
2019-03-28T05:15:11.221Z,102741.70
2019-03-28T05:17:40.408Z,102734.05
2019-03-28T05:20:09.363Z,102743.85
2019-03-28T05:22:37.857Z,102745.05
2019-03-28T05:25:07.438Z,102742.50
2019-03-28T05:27:35.840Z,102744.41
2019-03-28T05:30:11.298Z,102749.28
2019-03-28T05:32:39.788Z,102746.41
2019-03-28T05:35:08.347Z,102757.33
2019-03-28T05:37:36.745Z,102755.89
2019-03-28T05:40:07.101Z,102751.58
2019-03-28T05:42:35.501Z,102757.24
2019-03-28T05:45:07.455Z,102756.05
2019-03-28T05:47:35.864Z,102761.15
2019-03-28T05:50:06.312Z,102754.46
2019-03-28T05:52:34.801Z,102750.63
2019-03-28T05:55:05.338Z,102753.98
2019-03-28T05:57:33.412Z,102755.17
2019-03-28T06:00:01.841Z,102752.06
2019-03-28T06:02:30.245Z,102752.06
2019-03-28T06:04:58.662Z,102759.56
2019-03-28T06:07:27.081Z,102757.09
2019-03-28T06:09:55.483Z,102756.49
2019-03-28T06:12:23.897Z,102756.97
2019-03-28T06:14:52.321Z,102758.81
2019-03-28T06:17:20.760Z,102755.47
2019-03-28T06:19:49.245Z,102754.27
2019-03-28T06:22:17.669Z,102760.73
2019-03-28T06:24:46.132Z,102764.23
2019-03-28T06:27:14.519Z,102753.23
2019-03-28T06:29:42.946Z,102754.59
2019-03-28T06:32:11.369Z,102764.48
2019-03-28T06:34:39.815Z,102758.98
2019-03-28T06:37:08.315Z,102768.10
2019-03-28T06:39:36.734Z,102769.30
2019-03-28T06:42:05.116Z,102763.00
2019-03-28T06:44:33.529Z,102761.48
2019-03-28T06:47:01.930Z,102758.86
2019-03-28T06:49:30.361Z,102763.48
2019-03-28T06:51:58.803Z,102758.86
2019-03-28T06:54:27.184Z,102766.75
2019-03-28T06:56:55.589Z,102758.30
2019-03-28T06:59:36.226Z,102756.78
2019-03-28T07:01:54.370Z,102761.28
2019-03-28T07:04:22.779Z,102765.67
2019-03-28T07:06:51.199Z,102765.27
2019-03-28T07:09:19.600Z,102774.20
2019-03-28T07:11:48.016Z,102772.45
2019-03-28T07:14:16.490Z,102765.19
2019-03-28T07:16:44.928Z,102760.64
2019-03-28T07:19:13.405Z,102766.86
2019-03-28T07:21:41.876Z,102765.42
2019-03-28T07:24:10.429Z,102768.97
2019-03-28T07:26:38.903Z,102769.60
2019-03-28T07:29:07.356Z,102766.41
2019-03-28T07:31:35.821Z,102768.72
2019-03-28T07:34:04.268Z,102773.75
2019-03-28T07:36:32.702Z,102770.23
2019-03-28T07:39:02.014Z,102770.39
2019-03-28T07:41:30.433Z,102770.47
2019-03-28T07:43:58.883Z,102768.19
2019-03-28T07:46:27.389Z,102765.31
2019-03-28T07:48:55.778Z,102769.14
2019-03-28T07:51:24.296Z,102768.50
2019-03-28T07:53:52.791Z,102766.09
2019-03-28T07:56:21.227Z,102770.09
2019-03-28T07:58:49.737Z,102773.99
2019-03-28T08:01:18.367Z,102768.25
2019-03-28T08:03:46.778Z,102767.53
2019-03-28T08:06:15.344Z,102765.45
2019-03-28T08:08:44.279Z,102768.27
2019-03-28T08:11:12.980Z,102774.56
2019-03-28T08:13:41.470Z,102778.25
2019-03-28T08:16:09.897Z,102774.90
2019-03-28T08:18:38.323Z,102774.10
2019-03-28T08:21:06.832Z,102782.75
2019-03-28T08:23:35.591Z,102781.95
2019-03-28T08:26:04.280Z,102791.44
2019-03-28T08:28:32.725Z,102789.77
2019-03-28T08:31:01.126Z,102790.09
2019-03-28T08:33:29.715Z,102791.67
2019-03-28T08:35:58.612Z,102786.81
2019-03-28T08:38:27.551Z,102791.09
2019-03-28T08:40:55.990Z,102794.13
2019-03-28T08:43:24.412Z,102799.80
2019-03-28T08:45:52.854Z,102805.86
2019-03-28T08:48:21.327Z,102804.03
2019-03-28T08:50:49.826Z,102807.62
2019-03-28T08:53:18.297Z,102814.62
2019-03-28T08:55:46.783Z,102821.57
2019-03-28T08:58:15.157Z,102822.19
2019-03-28T09:00:51.530Z,102825.33
2019-03-28T09:03:13.882Z,102824.60
2019-03-28T09:05:42.432Z,102832.34
2019-03-28T09:08:10.940Z,102837.53
2019-03-28T09:10:39.328Z,102841.92
2019-03-28T09:13:07.870Z,102836.00
2019-03-28T09:15:43.539Z,102843.34
2019-03-28T09:18:06.618Z,102835.27
2019-03-28T09:20:35.134Z,102835.34
2019-03-28T09:23:03.651Z,102834.88
2019-03-28T09:25:32.087Z,102826.58
2019-03-28T09:28:00.504Z,102832.16
2019-03-28T09:30:47.642Z,102834.94
2019-03-28T09:33:05.530Z,102837.72
2019-03-28T09:35:34.121Z,102838.98
2019-03-28T09:38:02.665Z,102833.76
2019-03-28T09:40:31.096Z,102834.78
2019-03-28T09:42:59.672Z,102837.73
2019-03-28T09:45:28.273Z,102833.56
2019-03-28T09:47:56.775Z,102831.75
2019-03-28T09:50:25.255Z,102833.35
2019-03-28T09:52:54.170Z,102829.39
2019-03-28T09:55:22.784Z,102826.97
2019-03-28T09:57:51.206Z,102829.43
2019-03-28T10:00:21.182Z,102826.41
2019-03-28T10:02:49.609Z,102819.47
2019-03-28T10:05:18.018Z,102822.67
2019-03-28T10:07:46.444Z,102821.53
2019-03-28T10:10:15.024Z,102822.33
2019-03-28T10:12:44.234Z,102822.91
2019-03-28T10:15:13.087Z,102825.12
2019-03-28T10:17:42.550Z,102822.09
2019-03-28T10:20:11.201Z,102829.84
2019-03-28T10:22:39.705Z,102827.55
2019-03-28T10:25:12.283Z,102823.77
2019-03-28T10:27:39.030Z,102814.80
2019-03-28T10:30:09.693Z,102806.63
2019-03-28T10:32:38.221Z,102810.02
2019-03-28T10:35:07.262Z,102811.48
2019-03-28T10:37:35.911Z,102810.21
2019-03-28T10:40:06.985Z,102807.90
2019-03-28T10:42:35.470Z,102801.15
2019-03-28T10:45:05.331Z,102807.62
2019-03-28T10:47:33.746Z,102814.03
2019-03-28T10:50:04.249Z,102809.49
2019-03-28T10:52:32.392Z,102821.09
2019-03-28T10:55:00.796Z,102821.72
2019-03-28T10:57:30.351Z,102816.03
2019-03-28T10:59:59.438Z,102812.98
2019-03-28T11:02:28.976Z,102819.02
2019-03-28T11:04:57.572Z,102808.81
2019-03-28T11:07:25.975Z,102807.06
2019-03-28T11:09:54.417Z,102808.69
2019-03-28T11:12:22.852Z,102810.56
2019-03-28T11:14:51.264Z,102811.36
2019-03-28T11:17:19.685Z,102806.81
2019-03-28T11:19:48.086Z,102804.59
2019-03-28T11:22:16.518Z,102799.23
2019-03-28T11:24:46.496Z,102799.97
2019-03-28T11:27:15.098Z,102795.66
2019-03-28T11:29:43.501Z,102792.48
2019-03-28T11:32:11.937Z,102792.64
2019-03-28T11:34:40.902Z,102787.62
2019-03-28T11:37:19.971Z,102791.72
2019-03-28T11:39:39.835Z,102780.87
2019-03-28T11:42:08.348Z,102788.27
2019-03-28T11:44:36.735Z,102785.53
2019-03-28T11:47:05.224Z,102789.50
2019-03-28T11:49:33.717Z,102778.25
2019-03-28T11:52:02.254Z,102789.03
2019-03-28T11:54:30.698Z,102785.77
2019-03-28T11:56:59.123Z,102787.52
2019-03-28T11:59:27.544Z,102793.17
2019-03-28T12:02:00.574Z,102788.09
2019-03-28T12:04:26.200Z,102789.56
2019-03-28T12:06:54.620Z,102789.96
2019-03-28T12:09:23.046Z,102795.41
2019-03-28T12:11:53.058Z,102791.14
2019-03-28T12:14:21.719Z,102786.94
2019-03-28T12:16:50.133Z,102786.92
2019-03-28T12:19:18.627Z,102787.31
2019-03-28T12:21:47.009Z,102782.12
2019-03-28T12:24:15.497Z,102780.53
2019-03-28T12:26:44.062Z,102780.31
2019-03-28T12:29:12.587Z,102775.64
2019-03-28T12:31:41.064Z,102768.66
2019-03-28T12:34:09.543Z,102763.67
2019-03-28T12:36:38.002Z,102767.83
2019-03-28T12:39:06.985Z,102758.84
2019-03-28T12:41:35.426Z,102767.52
2019-03-28T12:44:03.925Z,102768.81
2019-03-28T12:46:32.319Z,102764.73
2019-03-28T12:49:00.778Z,102767.66
2019-03-28T12:51:29.183Z,102759.41
2019-03-28T12:53:57.626Z,102760.34
2019-03-28T12:56:26.467Z,102763.83
2019-03-28T12:58:55.061Z,102755.96
2019-03-28T13:01:24.509Z,102759.45
2019-03-28T13:03:52.993Z,102757.16
2019-03-28T13:06:21.397Z,102757.16
2019-03-28T13:08:49.810Z,102752.16
2019-03-28T13:11:18.272Z,102754.73
2019-03-28T13:13:46.698Z,102751.19
2019-03-28T13:16:15.146Z,102748.77
2019-03-28T13:18:43.582Z,102744.27
2019-03-28T13:21:13.852Z,102746.07
2019-03-28T13:23:42.158Z,102739.70
2019-03-28T13:26:10.653Z,102736.69
2019-03-28T13:28:39.080Z,102738.33
2019-03-28T13:31:07.574Z,102730.96
2019-03-28T13:33:36.000Z,102729.58
2019-03-28T13:36:04.403Z,102727.93
2019-03-28T13:38:32.829Z,102729.48
2019-03-28T13:41:01.239Z,102730.98
2019-03-28T13:43:30.670Z,102725.28
2019-03-28T13:45:59.123Z,102727.54
2019-03-28T13:48:27.531Z,102720.19
2019-03-28T13:50:55.977Z,102720.34
2019-03-28T13:53:38.009Z,102702.30
2019-03-28T13:55:54.664Z,102719.34
2019-03-28T13:58:23.067Z,102721.04
2019-03-28T14:00:54.415Z,102718.01
2019-03-28T14:03:21.759Z,102716.88
2019-03-28T14:05:50.254Z,102713.02
2019-03-28T14:08:18.670Z,102719.50
2019-03-28T14:10:47.176Z,102719.45
2019-03-28T14:13:15.578Z,102714.53
2019-03-28T14:15:44.005Z,102709.70
2019-03-28T14:18:12.449Z,102717.05
2019-03-28T14:20:40.850Z,102713.20
2019-03-28T14:23:09.264Z,102711.81
2019-03-28T14:25:37.703Z,102711.50
2019-03-28T14:28:06.235Z,102711.81
2019-03-28T14:30:34.630Z,102710.98
2019-03-28T14:33:11.056Z,102709.02
2019-03-28T14:35:33.190Z,102710.86
2019-03-28T14:38:01.587Z,102708.19
2019-03-28T14:40:30.004Z,102702.33
2019-03-28T14:42:58.479Z,102707.56
2019-03-28T14:45:26.971Z,102704.59
2019-03-28T14:47:55.399Z,102705.67
2019-03-28T14:50:35.623Z,102703.92
2019-03-28T14:53:04.581Z,102712.24
2019-03-28T14:55:35.216Z,102710.04
2019-03-28T14:58:09.460Z,102703.05
2019-03-28T15:00:48.857Z,102697.91
2019-03-28T15:03:26.345Z,102706.50
2019-03-28T15:05:48.090Z,102704.66
2019-03-28T15:08:16.572Z,102707.64
2019-03-28T15:10:45.117Z,102705.44
2019-03-28T15:13:13.648Z,102703.69
2019-03-28T15:15:42.099Z,102694.19
2019-03-28T15:18:10.546Z,102688.89
2019-03-28T15:20:38.996Z,102693.98
2019-03-28T15:23:07.502Z,102684.16
2019-03-28T15:25:36.027Z,102682.06
2019-03-28T15:28:04.537Z,102685.45
2019-03-28T15:30:32.956Z,102692.23
2019-03-28T15:33:01.401Z,102686.96
2019-03-28T15:35:29.830Z,102677.64
2019-03-28T15:37:58.263Z,102681.50
2019-03-28T15:40:26.871Z,102678.47
2019-03-28T15:42:55.388Z,102681.03
2019-03-28T15:45:24.023Z,102677.92
2019-03-28T15:47:52.447Z,102684.34
2019-03-28T15:50:20.906Z,102675.20
2019-03-28T15:52:49.411Z,102670.88
2019-03-28T15:55:17.903Z,102677.36
2019-03-28T15:57:46.401Z,102671.30
2019-03-28T16:00:15.381Z,102671.30
2019-03-28T16:02:43.806Z,102676.95
2019-03-28T16:05:12.303Z,102673.09
2019-03-28T16:07:41.095Z,102678.64
2019-03-28T16:10:10.155Z,102668.77
2019-03-28T16:12:38.650Z,102672.53
2019-03-28T16:15:08.124Z,102674.17
2019-03-28T16:17:36.608Z,102671.19
2019-03-28T16:20:07.196Z,102678.38
2019-03-28T16:22:35.642Z,102685.62
2019-03-28T16:25:05.627Z,102678.38
2019-03-28T16:27:34.007Z,102681.13
2019-03-28T16:30:02.542Z,102685.49
2019-03-28T16:32:30.962Z,102679.43
2019-03-28T16:34:59.378Z,102682.72
2019-03-28T16:37:27.964Z,102676.66
2019-03-28T16:39:56.513Z,102680.86
2019-03-28T16:42:24.948Z,102677.94
2019-03-28T16:44:53.358Z,102676.60
2019-03-28T16:47:21.760Z,102677.02
2019-03-28T16:49:50.323Z,102678.76
2019-03-28T16:52:18.741Z,102671.41
2019-03-28T16:54:47.212Z,102677.28
2019-03-28T16:57:15.626Z,102674.25
2019-03-28T16:59:44.048Z,102675.86
2019-03-28T17:02:12.548Z,102670.27
2019-03-28T17:04:40.980Z,102666.41
2019-03-28T17:07:09.956Z,102668.52
2019-03-28T17:09:39.265Z,102671.50
2019-03-28T17:12:08.150Z,102680.38
2019-03-28T17:14:36.719Z,102679.81
2019-03-28T17:17:05.235Z,102683.61
2019-03-28T17:19:33.659Z,102684.42
2019-03-28T17:22:02.173Z,102687.41
2019-03-28T17:24:30.688Z,102194.51
2019-03-28T17:26:59.187Z,102684.13
2019-03-28T17:29:27.612Z,102685.41
2019-03-28T17:31:56.043Z,102680.93
2019-03-28T17:34:34.655Z,102689.50
2019-03-28T17:36:54.597Z,102685.59
2019-03-28T17:39:23.032Z,102681.75
2019-03-28T17:41:51.529Z,102679.12
2019-03-28T17:44:19.972Z,102677.79
2019-03-28T17:46:48.395Z,102679.89
2019-03-28T17:49:16.807Z,102680.30
2019-03-28T17:51:45.337Z,102682.41
2019-03-28T17:54:13.757Z,102688.32
2019-03-28T17:56:42.263Z,102688.22
2019-03-28T17:59:10.770Z,102679.88
2019-03-28T18:01:39.211Z,102678.13
2019-03-28T18:04:07.672Z,102686.66
2019-03-28T18:06:36.191Z,102688.40
2019-03-28T18:09:07.048Z,102685.38
2019-03-28T18:11:35.481Z,102690.91
2019-03-28T18:14:04.561Z,102693.02
2019-03-28T18:16:34.106Z,102692.55
2019-03-28T18:19:02.563Z,102696.75
2019-03-28T18:21:30.982Z,102696.60
2019-03-28T18:23:59.418Z,102692.70
2019-03-28T18:26:27.982Z,102697.31
2019-03-28T18:28:56.390Z,102697.20
2019-03-28T18:31:24.819Z,102699.70
2019-03-28T18:33:53.252Z,102696.91
2019-03-28T18:36:21.734Z,102702.65
2019-03-28T18:38:52.483Z,102694.02
2019-03-28T18:41:20.327Z,102693.61
2019-03-28T18:43:49.746Z,102698.22
2019-03-28T18:46:18.448Z,102701.60
2019-03-28T18:48:46.978Z,102702.07
2019-03-28T18:51:15.463Z,102707.90
2019-03-28T18:53:43.871Z,102706.62
2019-03-28T18:56:12.385Z,102704.05
2019-03-28T18:58:40.810Z,102705.80
2019-03-28T19:01:09.347Z,102701.08
2019-03-28T19:03:37.806Z,102703.59
2019-03-28T19:06:06.372Z,102701.57
2019-03-28T19:08:34.867Z,102705.41
2019-03-28T19:11:04.006Z,102703.14
2019-03-28T19:13:32.673Z,102697.43
2019-03-28T19:16:01.296Z,102703.43
2019-03-28T19:18:29.738Z,102702.34
2019-03-28T19:20:58.149Z,102699.78
2019-03-28T19:23:26.613Z,102702.34
2019-03-28T19:25:55.087Z,102701.88
2019-03-28T19:28:29.243Z,102692.32
2019-03-28T19:30:53.693Z,102690.98
2019-03-28T19:33:22.128Z,102696.16
2019-03-28T19:35:51.282Z,102692.67
2019-03-28T19:38:19.806Z,102690.52
2019-03-28T19:40:48.359Z,102695.58
2019-03-28T19:43:20.947Z,102687.36
2019-03-28T19:45:47.280Z,102680.42
2019-03-28T19:48:15.725Z,102684.93
2019-03-28T19:50:44.151Z,102683.41
2019-03-28T19:53:12.564Z,102679.38
2019-03-28T19:55:41.007Z,102677.98
2019-03-28T19:58:09.481Z,102679.83
2019-03-28T20:00:37.969Z,102682.95
2019-03-28T20:03:06.470Z,102668.20
2019-03-28T20:05:46.735Z,102679.20
2019-03-28T20:08:15.422Z,102681.50
2019-03-28T20:10:35.546Z,102679.20
2019-03-28T20:13:05.417Z,102677.23
2019-03-28T20:15:34.199Z,102684.72
2019-03-28T20:18:02.708Z,102682.23
2019-03-28T20:20:31.218Z,102682.09
2019-03-28T20:22:59.724Z,102647.47
2019-03-28T20:25:28.316Z,102684.42
2019-03-28T20:27:56.772Z,102684.16
2019-03-28T20:30:25.323Z,102693.41
2019-03-28T20:32:53.834Z,102688.09
2019-03-28T20:35:22.354Z,102688.90
2019-03-28T20:37:50.817Z,102696.26
2019-03-28T20:40:20.061Z,102701.78
2019-03-28T20:42:48.543Z,102702.46
2019-03-28T20:45:18.538Z,102699.00
2019-03-28T20:47:46.973Z,102696.52
2019-03-28T20:50:17.215Z,102691.95
2019-03-28T20:52:45.726Z,102688.52
2019-03-28T20:55:14.292Z,102685.36
2019-03-28T20:57:42.728Z,102687.84
2019-03-28T21:00:12.912Z,102692.15
2019-03-28T21:02:41.738Z,102689.45
2019-03-28T21:05:10.704Z,102689.30
2019-03-28T21:07:39.279Z,102688.69
2019-03-28T21:10:09.804Z,102700.03
2019-03-28T21:12:38.221Z,102701.63
2019-03-28T21:15:08.103Z,102696.38
2019-03-28T21:17:36.554Z,102698.83
2019-03-28T21:20:06.862Z,102698.85
2019-03-28T21:22:35.254Z,102699.56
2019-03-28T21:25:04.899Z,102696.12
2019-03-28T21:27:33.369Z,102701.09
2019-03-28T21:30:01.736Z,102696.05
2019-03-28T21:32:30.178Z,102695.17
2019-03-28T21:34:58.649Z,102694.84
2019-03-28T21:37:27.084Z,102697.17
2019-03-28T21:39:55.477Z,102693.67
2019-03-28T21:42:23.962Z,102697.11
2019-03-28T21:44:52.415Z,102698.13
2019-03-28T21:47:20.861Z,102697.18
2019-03-28T21:49:49.388Z,102702.27
2019-03-28T21:52:17.817Z,102699.23
2019-03-28T21:54:46.233Z,102703.69
2019-03-28T21:57:14.882Z,102703.80
2019-03-28T21:59:43.290Z,102702.58
2019-03-28T22:02:11.742Z,102697.31
2019-03-28T22:04:40.157Z,102694.37
2019-03-28T22:07:08.594Z,102687.51
2019-03-28T22:09:39.614Z,102692.11
2019-03-28T22:12:07.222Z,102694.94
2019-03-28T22:14:35.630Z,102696.27
2019-03-28T22:17:04.042Z,102695.40
2019-03-28T22:19:32.461Z,102702.45
2019-03-28T22:22:01.949Z,102692.91
2019-03-28T22:24:30.789Z,102692.62
2019-03-28T22:26:59.223Z,102694.38
2019-03-28T22:29:27.711Z,102695.66
2019-03-28T22:31:56.809Z,102690.34
2019-03-28T22:34:25.480Z,102701.77
2019-03-28T22:36:57.561Z,102699.53
2019-03-28T22:39:24.013Z,102699.73
2019-03-28T22:41:52.427Z,102697.19
2019-03-28T22:44:20.893Z,102694.68
2019-03-28T22:46:49.311Z,102700.46
2019-03-28T22:49:17.750Z,102694.91
2019-03-28T22:51:46.172Z,102687.44
2019-03-28T22:54:14.587Z,102689.24
2019-03-28T22:56:43.090Z,102689.38
2019-03-28T22:59:11.496Z,102691.37
2019-03-28T23:01:39.966Z,102687.25
2019-03-28T23:04:08.474Z,102688.33
2019-03-28T23:06:36.897Z,102688.67
2019-03-28T23:09:06.849Z,102684.86
2019-03-28T23:11:35.296Z,102689.33
2019-03-28T23:14:03.848Z,102688.45
2019-03-28T23:16:32.256Z,102688.03
2019-03-28T23:19:00.838Z,102686.95
2019-03-28T23:21:29.249Z,102684.89
2019-03-28T23:23:57.654Z,102688.90
2019-03-28T23:26:26.085Z,102688.34
2019-03-28T23:28:54.482Z,102681.72
2019-03-28T23:31:22.897Z,102685.98
2019-03-28T23:33:51.315Z,102678.23
2019-03-28T23:36:19.727Z,102678.01
2019-03-28T23:38:48.134Z,102672.77
2019-03-28T23:41:16.553Z,102682.83
2019-03-28T23:43:45.034Z,102686.25
2019-03-28T23:46:13.429Z,102676.95
2019-03-28T23:48:41.851Z,102677.05
2019-03-28T23:51:10.280Z,102676.84
2019-03-28T23:53:39.260Z,102674.30
2019-03-28T23:56:07.681Z,102675.55
2019-03-28T23:58:36.549Z,102682.92
